createdAt,value
2022-12-17T00:01:50.932Z,95031.34
2022-12-17T00:04:37.717Z,95029.75
2022-12-17T00:07:22.782Z,95039.16
2022-12-17T00:10:07.993Z,95039.91
2022-12-17T00:12:52.810Z,95044.88
2022-12-17T00:15:41.697Z,95048.06
2022-12-17T00:18:29.979Z,95045.63
2022-12-17T00:21:16.773Z,95057.56
2022-12-17T00:24:02.475Z,95048.63
2022-12-17T00:26:47.907Z,95059.84
2022-12-17T00:29:32.788Z,95060.84
2022-12-17T00:32:18.248Z,95064.88
2022-12-17T00:35:03.456Z,95069.63
2022-12-17T00:37:49.073Z,95067.09
2022-12-17T00:40:34.395Z,95073.53
2022-12-17T00:43:26.661Z,95082.91
2022-12-17T00:46:12.444Z,95080.47
2022-12-17T00:48:57.690Z,95088.22
2022-12-17T00:51:43.306Z,95087.44
2022-12-17T00:54:29.115Z,95092.78
2022-12-17T00:57:14.283Z,95086.38
2022-12-17T00:59:59.500Z,95088.72
2022-12-17T01:02:45.372Z,95095.63
2022-12-17T01:05:31.209Z,95102.75
2022-12-17T01:08:24.869Z,95105.28
2022-12-17T01:11:10.033Z,95115.34
2022-12-17T01:13:56.090Z,95111.16
2022-12-17T01:16:41.798Z,95108.69
2022-12-17T01:19:27.181Z,95112.78
2022-12-17T01:22:12.561Z,95116.38
2022-12-17T01:24:57.712Z,95124.56
2022-12-17T01:27:44.708Z,95135.59
2022-12-17T01:30:29.856Z,95130.69
2022-12-17T01:33:26.335Z,95132.50
2022-12-17T01:36:16.072Z,95136.72
2022-12-17T01:39:02.105Z,95138.66
2022-12-17T01:41:47.901Z,95138.56
2022-12-17T01:44:58.181Z,95154.59
2022-12-17T01:48:07.962Z,95154.47
2022-12-17T01:50:57.373Z,95162.41
2022-12-17T01:53:49.815Z,95156.28
2022-12-17T01:56:36.344Z,95163.47
2022-12-17T01:59:24.543Z,95168.56
2022-12-17T02:02:09.662Z,95166.59
2022-12-17T02:04:55.303Z,95166.22
2022-12-17T02:08:01.645Z,95172.13
2022-12-17T02:10:58.527Z,95179.44
2022-12-17T02:13:51.202Z,95177.53
2022-12-17T02:16:41.252Z,95175.94
2022-12-17T02:19:49.313Z,95178.25
2022-12-17T02:22:57.211Z,95180.44
2022-12-17T02:26:15.366Z,95178.97
2022-12-17T02:29:07.178Z,95179.94
2022-12-17T02:31:55.080Z,95183.56
2022-12-17T02:34:42.345Z,95183.66
2022-12-17T02:37:28.848Z,95180.97
2022-12-17T02:40:14.352Z,95187.56
2022-12-17T02:43:02.014Z,95188.19
2022-12-17T02:45:48.485Z,95193.13
2022-12-17T02:48:36.905Z,95194.13
2022-12-17T02:51:22.178Z,95194.16
2022-12-17T02:54:11.522Z,95204.97
2022-12-17T02:56:57.069Z,95201.63
2022-12-17T02:59:42.994Z,95204.19
2022-12-17T03:02:33.669Z,95219.44
2022-12-17T03:05:43.547Z,95219.38
2022-12-17T03:08:24.045Z,95220.91
2022-12-17T03:11:09.366Z,95228.56
2022-12-17T03:13:54.484Z,95227.63
2022-12-17T03:16:39.790Z,95235.88
2022-12-17T03:19:24.955Z,95234.06
2022-12-17T03:22:10.616Z,95239.03
2022-12-17T03:25:00.312Z,95238.47
2022-12-17T03:27:45.967Z,95242.00
2022-12-17T03:30:35.719Z,95240.25
2022-12-17T03:33:21.175Z,95240.25
2022-12-17T03:36:06.508Z,95241.91
2022-12-17T03:38:51.313Z,95238.84
2022-12-17T03:41:36.474Z,95238.50
2022-12-17T03:44:21.254Z,95239.09
2022-12-17T03:47:06.464Z,95242.47
2022-12-17T03:49:51.690Z,95246.78
2022-12-17T03:52:36.711Z,95245.81
2022-12-17T03:55:22.193Z,95250.72
2022-12-17T03:58:07.587Z,95252.13
2022-12-17T04:00:52.614Z,95253.53
2022-12-17T04:03:37.881Z,95255.53
2022-12-17T04:06:23.428Z,95254.88
2022-12-17T04:09:08.568Z,95258.22
2022-12-17T04:11:53.822Z,95270.69
2022-12-17T04:14:39.152Z,95271.97
2022-12-17T04:17:24.350Z,95266.22
2022-12-17T04:20:09.343Z,95276.56
2022-12-17T04:22:54.466Z,95281.59
2022-12-17T04:25:39.594Z,95284.25
2022-12-17T04:28:24.828Z,95288.44
2022-12-17T04:31:10.122Z,95290.94
2022-12-17T04:33:55.396Z,95293.50
2022-12-17T04:36:40.596Z,95300.25
2022-12-17T04:39:25.917Z,95296.78
2022-12-17T04:42:10.774Z,95305.34
2022-12-17T04:44:56.065Z,95307.53
2022-12-17T04:47:40.937Z,95315.78
2022-12-17T04:50:26.146Z,95320.69
2022-12-17T04:53:19.141Z,95325.97
2022-12-17T04:56:05.029Z,95316.25
2022-12-17T04:58:50.814Z,95324.97
2022-12-17T05:01:36.279Z,95327.38
2022-12-17T05:04:22.034Z,95335.19
2022-12-17T05:07:07.255Z,95340.59
2022-12-17T05:09:52.307Z,95344.25
2022-12-17T05:12:37.205Z,95347.53
2022-12-17T05:15:22.614Z,95356.09
2022-12-17T05:18:10.454Z,95354.44
2022-12-17T05:20:55.578Z,95359.78
2022-12-17T05:23:41.000Z,95360.72
2022-12-17T05:26:46.950Z,95361.81
2022-12-17T05:29:32.661Z,95370.25
2022-12-17T05:32:17.787Z,95370.88
2022-12-17T05:35:02.860Z,95369.34
2022-12-17T05:37:48.066Z,95377.38
2022-12-17T05:40:33.306Z,95382.03
2022-12-17T05:43:25.395Z,95386.41
2022-12-17T05:46:10.424Z,95382.56
2022-12-17T05:48:55.759Z,95387.69
2022-12-17T05:51:41.107Z,95393.81
2022-12-17T05:54:26.797Z,95394.75
2022-12-17T05:57:12.994Z,95391.63
2022-12-17T05:59:58.329Z,95394.38
2022-12-17T06:02:43.778Z,95402.28
2022-12-17T06:05:29.529Z,95410.97
2022-12-17T06:08:26.050Z,95413.75
2022-12-17T06:11:11.485Z,95408.84
2022-12-17T06:13:56.655Z,95412.97
2022-12-17T06:16:42.153Z,95415.03
2022-12-17T06:19:27.429Z,95415.34
2022-12-17T06:22:12.646Z,95425.78
2022-12-17T06:24:57.760Z,95422.69
2022-12-17T06:27:42.896Z,95421.88
2022-12-17T06:30:28.608Z,95424.56
2022-12-17T06:33:28.529Z,95422.50
2022-12-17T06:36:29.202Z,95425.00
2022-12-17T06:39:14.230Z,95432.00
2022-12-17T06:42:04.308Z,95443.28
2022-12-17T06:44:50.572Z,95447.16
2022-12-17T06:47:35.811Z,95454.22
2022-12-17T06:50:20.929Z,95465.47
2022-12-17T06:53:05.698Z,95474.13
2022-12-17T06:55:54.082Z,95472.72
2022-12-17T06:58:38.925Z,95480.31
2022-12-17T07:01:24.224Z,95488.69
2022-12-17T07:04:09.576Z,95485.38
2022-12-17T07:06:54.536Z,95490.41
2022-12-17T07:09:39.783Z,95485.38
2022-12-17T07:12:25.113Z,95503.63
2022-12-17T07:15:10.407Z,95500.00
2022-12-17T07:17:55.466Z,95505.75
2022-12-17T07:20:40.650Z,95506.38
2022-12-17T07:23:25.636Z,95502.94
2022-12-17T07:26:10.444Z,95505.44
2022-12-17T07:28:55.750Z,95497.09
2022-12-17T07:31:40.752Z,95510.53
2022-12-17T07:34:25.830Z,95513.09
2022-12-17T07:37:11.817Z,95522.25
2022-12-17T07:39:58.829Z,95522.13
2022-12-17T07:42:44.113Z,95532.84
2022-12-17T07:45:29.259Z,95526.75
2022-12-17T07:48:14.445Z,95526.50
2022-12-17T07:50:59.564Z,95532.72
2022-12-17T07:53:44.824Z,95537.88
2022-12-17T07:56:29.768Z,95538.13
2022-12-17T07:59:14.683Z,95537.50
2022-12-17T08:02:00.314Z,95532.75
2022-12-17T08:04:45.327Z,95537.44
2022-12-17T08:07:30.508Z,95534.00
2022-12-17T08:10:15.699Z,95532.91
2022-12-17T08:13:01.005Z,95539.66
2022-12-17T08:15:45.945Z,95544.19
2022-12-17T08:18:30.989Z,95548.38
2022-12-17T08:21:18.314Z,95550.97
2022-12-17T08:24:03.460Z,95545.53
2022-12-17T08:26:48.638Z,95555.91
2022-12-17T08:29:33.848Z,95562.59
2022-12-17T08:32:18.698Z,95568.69
2022-12-17T08:35:03.950Z,95562.97
2022-12-17T08:37:49.542Z,95560.63
2022-12-17T08:40:36.901Z,95573.41
2022-12-17T08:43:22.213Z,95568.63
2022-12-17T08:46:09.140Z,95570.72
2022-12-17T08:48:54.987Z,95577.09
2022-12-17T08:51:41.528Z,95587.50
2022-12-17T08:54:26.927Z,95582.56
2022-12-17T08:57:12.477Z,95581.28
2022-12-17T08:59:57.582Z,95576.06
2022-12-17T09:03:03.230Z,95585.38
2022-12-17T09:05:48.625Z,95581.38
2022-12-17T09:08:33.756Z,95581.22
2022-12-17T09:11:19.714Z,95592.34
2022-12-17T09:14:04.759Z,95591.69
2022-12-17T09:16:49.706Z,95594.91
2022-12-17T09:19:34.902Z,95596.84
2022-12-17T09:22:19.753Z,95601.41
2022-12-17T09:25:04.881Z,95605.56
2022-12-17T09:28:09.758Z,95609.63
2022-12-17T09:30:55.052Z,95608.75
2022-12-17T09:33:40.462Z,95607.78
2022-12-17T09:36:26.466Z,95603.72
2022-12-17T09:39:11.614Z,95602.50
2022-12-17T09:42:22.088Z,95600.44
2022-12-17T09:45:26.628Z,95609.38
2022-12-17T09:48:32.733Z,95615.25
2022-12-17T09:51:17.917Z,95610.63
2022-12-17T09:54:10.976Z,95618.50
2022-12-17T09:56:58.123Z,95614.50
2022-12-17T09:59:47.860Z,95619.84
2022-12-17T10:02:41.604Z,95618.03
2022-12-17T10:05:36.957Z,95620.50
2022-12-17T10:08:25.094Z,95619.50
2022-12-17T10:11:11.795Z,95623.84
2022-12-17T10:13:56.972Z,95624.81
2022-12-17T10:16:53.662Z,95629.41
2022-12-17T10:19:48.799Z,95625.44
2022-12-17T10:22:39.209Z,95631.94
2022-12-17T10:25:41.716Z,95625.25
2022-12-17T10:28:34.556Z,95635.03
2022-12-17T10:31:25.791Z,95653.75
2022-12-17T10:34:15.626Z,95659.31
2022-12-17T10:37:10.285Z,95659.53
2022-12-17T10:39:57.154Z,95656.66
2022-12-17T10:42:44.849Z,95660.03
2022-12-17T10:45:44.155Z,95645.78
2022-12-17T10:48:39.508Z,95645.16
2022-12-17T10:51:53.711Z,95645.88
2022-12-17T10:54:49.091Z,95642.34
2022-12-17T10:57:50.115Z,95636.94
2022-12-17T11:00:50.429Z,95641.34
2022-12-17T11:03:54.317Z,95641.91
2022-12-17T11:06:45.673Z,95643.06
2022-12-17T11:09:40.015Z,95645.84
2022-12-17T11:12:30.801Z,95642.81
2022-12-17T11:15:22.577Z,95655.56
2022-12-17T11:18:11.642Z,95643.19
2022-12-17T11:21:09.425Z,95648.00
2022-12-17T11:24:01.222Z,95641.63
2022-12-17T11:26:48.919Z,95639.84
2022-12-17T11:29:34.177Z,95634.03
2022-12-17T11:33:03.962Z,95635.97
2022-12-17T11:36:02.271Z,95639.38
2022-12-17T11:38:57.084Z,95632.84
2022-12-17T11:42:11.618Z,95633.16
2022-12-17T11:45:21.364Z,95636.13
2022-12-17T11:48:17.377Z,95633.16
2022-12-17T11:51:09.625Z,95640.97
2022-12-17T11:54:16.619Z,95632.94
2022-12-17T11:57:08.427Z,95637.22
2022-12-17T12:00:03.789Z,95640.16
2022-12-17T12:03:08.907Z,95641.44
2022-12-17T12:06:29.328Z,95647.53
2022-12-17T12:09:35.895Z,95643.38
2022-12-17T12:12:42.465Z,95642.41
2022-12-17T12:15:36.625Z,95642.22
2022-12-17T12:18:43.141Z,95636.44
2022-12-17T12:21:38.870Z,95643.69
2022-12-17T12:24:51.034Z,95639.94
2022-12-17T12:27:42.252Z,95633.38
2022-12-17T12:30:43.402Z,95641.59
2022-12-17T12:33:53.349Z,95635.56
2022-12-17T12:36:40.638Z,95646.50
2022-12-17T12:39:31.243Z,95648.13
2022-12-17T12:42:40.069Z,95642.84
2022-12-17T12:45:25.484Z,95647.78
2022-12-17T12:48:44.266Z,95653.09
2022-12-17T12:51:35.492Z,95652.13
2022-12-17T12:54:58.708Z,95657.50
2022-12-17T12:57:49.989Z,95651.25
2022-12-17T13:00:56.978Z,95657.69
2022-12-17T13:03:50.368Z,95651.88
2022-12-17T13:06:52.468Z,95658.81
2022-12-17T13:09:20.881Z,95650.78
2022-12-17T13:12:02.621Z,95655.13
2022-12-17T13:14:46.163Z,95660.19
2022-12-17T13:17:38.482Z,95660.22
2022-12-17T13:20:23.587Z,95660.97
2022-12-17T13:22:52.941Z,95658.31
2022-12-17T13:25:23.521Z,95660.47
2022-12-17T13:27:52.672Z,95661.53
2022-12-17T13:30:22.197Z,95657.44
2022-12-17T13:33:03.749Z,95655.69
2022-12-17T13:35:33.473Z,95668.16
2022-12-17T13:38:23.201Z,95674.00
2022-12-17T13:40:55.666Z,95671.13
2022-12-17T13:43:27.230Z,95677.22
2022-12-17T13:45:55.701Z,95683.81
2022-12-17T13:48:26.147Z,95684.03
2022-12-17T13:50:59.918Z,95693.72
2022-12-17T13:53:28.345Z,95695.44
2022-12-17T13:55:56.796Z,95706.63
2022-12-17T13:58:25.311Z,95708.94
2022-12-17T14:01:27.061Z,95719.47
2022-12-17T14:04:07.310Z,95714.47
2022-12-17T14:06:37.873Z,95707.59
2022-12-17T14:09:05.344Z,95713.19
2022-12-17T14:11:51.527Z,95712.22
2022-12-17T14:14:26.939Z,95711.69
2022-12-17T14:16:55.021Z,95718.63
2022-12-17T14:19:22.719Z,95711.69
2022-12-17T14:21:49.501Z,95717.97
2022-12-17T14:24:18.968Z,95722.03
2022-12-17T14:26:57.536Z,95726.03
2022-12-17T14:29:29.461Z,95726.91
2022-12-17T14:31:59.170Z,95737.78
2022-12-17T14:34:26.261Z,95735.25
2022-12-17T14:37:00.678Z,95732.44
2022-12-17T14:39:30.317Z,95741.06
2022-12-17T14:42:29.470Z,95737.59
2022-12-17T14:45:01.125Z,95736.25
2022-12-17T14:47:36.110Z,95736.50
2022-12-17T14:50:11.923Z,95742.22
2022-12-17T14:52:58.983Z,95745.56
2022-12-17T14:55:25.573Z,95743.91
2022-12-17T14:57:53.379Z,95749.84
2022-12-17T15:00:21.193Z,95750.91
2022-12-17T15:02:54.562Z,95761.25
2022-12-17T15:05:21.408Z,95754.34
2022-12-17T15:07:48.130Z,95758.09
2022-12-17T15:10:19.349Z,95763.94
2022-12-17T15:12:46.148Z,95768.19
2022-12-17T15:15:14.190Z,95769.00
2022-12-17T15:17:40.855Z,95781.94
2022-12-17T15:20:21.748Z,95784.81
2022-12-17T15:22:48.430Z,95781.97
2022-12-17T15:25:19.219Z,95786.19
2022-12-17T15:27:46.490Z,95782.13
2022-12-17T15:30:14.809Z,95783.78
2022-12-17T15:32:44.031Z,95790.66
2022-12-17T15:35:12.287Z,95784.09
2022-12-17T15:37:38.953Z,95788.38
2022-12-17T15:40:07.252Z,95788.91
2022-12-17T15:42:52.350Z,95789.16
2022-12-17T15:45:19.477Z,95781.00
2022-12-17T15:47:46.197Z,95785.22
2022-12-17T15:50:12.762Z,95776.06
2022-12-17T15:52:39.348Z,95782.84
2022-12-17T15:55:06.472Z,95794.84
2022-12-17T15:57:33.103Z,95791.59
2022-12-17T15:59:59.645Z,95790.50
2022-12-17T16:02:26.418Z,95796.53
2022-12-17T16:04:53.184Z,95801.56
2022-12-17T16:07:19.778Z,95802.28
2022-12-17T16:09:46.353Z,95801.63
2022-12-17T16:12:12.978Z,95800.00
2022-12-17T16:14:39.543Z,95804.22
2022-12-17T16:17:06.133Z,95808.56
2022-12-17T16:19:32.706Z,95809.31
2022-12-17T16:22:00.646Z,95807.56
2022-12-17T16:24:27.210Z,95793.41
2022-12-17T16:26:53.800Z,95789.09
2022-12-17T16:29:20.415Z,95794.13
2022-12-17T16:31:46.985Z,95790.78
2022-12-17T16:34:13.744Z,95784.91
2022-12-17T16:36:40.405Z,95779.84
2022-12-17T16:39:07.340Z,95774.75
2022-12-17T16:41:34.042Z,95782.38
2022-12-17T16:44:01.127Z,95788.19
2022-12-17T16:46:27.751Z,95792.47
2022-12-17T16:48:56.180Z,95795.69
2022-12-17T16:51:28.790Z,95801.56
2022-12-17T16:53:56.547Z,95796.66
2022-12-17T16:56:45.521Z,95792.56
2022-12-17T16:59:13.781Z,95801.78
2022-12-17T17:01:42.087Z,95800.13
2022-12-17T17:04:09.828Z,95808.66
2022-12-17T17:06:40.997Z,95809.97
2022-12-17T17:09:08.084Z,95813.69
2022-12-17T17:11:35.772Z,95819.47
2022-12-17T17:14:04.335Z,95820.06
2022-12-17T17:16:31.201Z,95814.47
2022-12-17T17:18:57.827Z,95817.94
2022-12-17T17:21:31.364Z,95824.78
2022-12-17T17:24:01.261Z,95834.75
2022-12-17T17:26:30.374Z,95831.28
2022-12-17T17:28:56.970Z,95833.03
2022-12-17T17:31:26.614Z,95840.78
2022-12-17T17:33:57.277Z,95842.44
2022-12-17T17:36:29.113Z,95848.34
2022-12-17T17:38:59.654Z,95852.47
2022-12-17T17:41:27.943Z,95848.34
2022-12-17T17:43:58.573Z,95845.28
2022-12-17T17:46:26.865Z,95851.53
2022-12-17T17:48:57.102Z,95850.13
2022-12-17T17:51:52.407Z,95853.84
2022-12-17T17:54:16.153Z,95849.75
2022-12-17T17:56:43.265Z,95849.06
2022-12-17T17:59:12.645Z,95855.78
2022-12-17T18:01:41.723Z,95858.28
2022-12-17T18:04:12.039Z,95855.69
2022-12-17T18:06:57.413Z,95859.09
2022-12-17T18:09:27.881Z,95863.41
2022-12-17T18:11:54.568Z,95866.00
2022-12-17T18:14:21.161Z,95855.84
2022-12-17T18:16:48.540Z,95860.13
2022-12-17T18:19:22.837Z,95861.13
2022-12-17T18:21:49.894Z,95872.19
2022-12-17T18:24:22.783Z,95869.50
2022-12-17T18:26:50.836Z,95867.94
2022-12-17T18:29:26.840Z,95879.69
2022-12-17T18:31:53.650Z,95884.78
2022-12-17T18:34:23.714Z,95884.03
2022-12-17T18:36:50.412Z,95880.94
2022-12-17T18:39:19.656Z,95881.75
2022-12-17T18:42:06.249Z,95881.81
2022-12-17T18:44:36.202Z,95881.09
2022-12-17T18:47:02.931Z,95884.47
2022-12-17T18:49:29.734Z,95881.88
2022-12-17T18:51:56.567Z,95883.63
2022-12-17T18:54:25.459Z,95887.91
2022-12-17T18:57:00.976Z,95892.09
2022-12-17T18:59:30.404Z,95893.75
2022-12-17T19:01:58.126Z,95888.78
2022-12-17T19:04:26.353Z,95890.38
2022-12-17T19:06:53.689Z,95893.72
2022-12-17T19:09:26.490Z,95892.06
2022-12-17T19:11:54.143Z,95888.78
2022-12-17T19:14:22.442Z,95893.75
2022-12-17T19:16:50.868Z,95893.00
2022-12-17T19:19:18.245Z,95894.84
2022-12-17T19:21:45.392Z,95894.75
2022-12-17T19:24:14.967Z,95897.38
2022-12-17T19:26:44.573Z,95901.59
2022-12-17T19:29:13.436Z,95903.38
2022-12-17T19:31:40.824Z,95902.41
2022-12-17T19:34:10.909Z,95907.63
2022-12-17T19:36:38.554Z,95903.28
2022-12-17T19:39:10.597Z,95907.47
2022-12-17T19:41:37.221Z,95905.97
2022-12-17T19:44:06.308Z,95912.94
2022-12-17T19:46:34.951Z,95907.09
2022-12-17T19:49:02.502Z,95913.81
2022-12-17T19:51:31.039Z,95909.69
2022-12-17T19:53:59.732Z,95904.66
2022-12-17T19:56:31.868Z,95908.13
2022-12-17T19:59:02.138Z,95914.81
2022-12-17T20:01:31.075Z,95919.03
2022-12-17T20:03:58.333Z,95915.78
2022-12-17T20:06:28.356Z,95913.34
2022-12-17T20:08:55.235Z,95915.88
2022-12-17T20:11:34.329Z,95916.66
2022-12-17T20:14:21.058Z,95915.16
2022-12-17T20:16:58.742Z,95921.84
2022-12-17T20:19:33.171Z,95920.41
2022-12-17T20:22:01.448Z,95927.88
2022-12-17T20:24:31.563Z,95925.28
2022-12-17T20:26:59.601Z,95928.69
2022-12-17T20:29:26.496Z,95937.03
2022-12-17T20:31:54.080Z,95932.00
2022-12-17T20:34:25.076Z,95933.72
2022-12-17T20:36:52.901Z,95935.38
2022-12-17T20:39:26.216Z,95943.13
2022-12-17T20:41:54.112Z,95940.66
2022-12-17T20:44:20.701Z,95939.03
2022-12-17T20:46:47.374Z,95936.59
2022-12-17T20:49:14.698Z,95936.47
2022-12-17T20:51:41.550Z,95938.31
2022-12-17T20:54:08.885Z,95937.47
2022-12-17T20:56:35.643Z,95939.97
2022-12-17T20:59:05.856Z,95940.72
2022-12-17T21:01:35.711Z,95953.41
2022-12-17T21:04:03.748Z,95938.34
2022-12-17T21:06:35.639Z,95935.78
2022-12-17T21:09:02.310Z,95938.50
2022-12-17T21:11:31.289Z,95937.69
2022-12-17T21:13:58.797Z,95945.31
2022-12-17T21:16:28.074Z,95946.13
2022-12-17T21:18:56.815Z,95947.03
2022-12-17T21:21:26.496Z,95947.06
2022-12-17T21:23:53.402Z,95947.97
2022-12-17T21:26:23.183Z,95948.84
2022-12-17T21:28:51.762Z,95942.28
2022-12-17T21:31:21.509Z,95943.34
2022-12-17T21:33:49.286Z,95936.75
2022-12-17T21:36:18.693Z,95940.97
2022-12-17T21:38:45.928Z,95943.63
2022-12-17T21:41:21.203Z,95934.47
2022-12-17T21:43:48.251Z,95943.69
2022-12-17T21:46:14.914Z,95944.47
2022-12-17T21:48:43.062Z,95943.59
2022-12-17T21:51:12.532Z,95940.16
2022-12-17T21:53:42.804Z,95941.81
2022-12-17T21:56:14.953Z,95945.19
2022-12-17T21:58:43.108Z,95944.28
2022-12-17T22:01:19.938Z,95958.50
2022-12-17T22:03:53.513Z,95955.09
2022-12-17T22:06:24.148Z,95966.13
2022-12-17T22:08:58.664Z,95956.03
2022-12-17T22:11:29.927Z,95962.75
2022-12-17T22:14:07.801Z,95961.06
2022-12-17T22:16:43.246Z,95961.78
2022-12-17T22:19:13.370Z,95966.75
2022-12-17T22:21:42.433Z,95969.09
2022-12-17T22:24:13.961Z,95972.50
2022-12-17T22:26:40.576Z,95973.31
2022-12-17T22:29:07.156Z,95966.53
2022-12-17T22:31:51.975Z,95961.53
2022-12-17T22:35:20.744Z,95966.59
2022-12-17T22:39:29.108Z,95960.63
2022-12-17T22:43:38.733Z,95966.53
2022-12-17T22:44:38.490Z,95968.97
2022-12-17T22:45:44.043Z,95963.22
2022-12-17T22:48:11.913Z,95965.56
2022-12-17T22:50:47.140Z,95971.47
2022-12-17T22:53:25.971Z,95965.78
2022-12-17T22:55:52.827Z,95965.00
2022-12-17T22:58:20.596Z,95965.78
2022-12-17T23:00:47.238Z,95971.69
2022-12-17T23:03:14.160Z,95966.59
2022-12-17T23:05:40.856Z,95961.56
2022-12-17T23:08:07.559Z,95965.78
2022-12-17T23:10:34.221Z,95974.94
2022-12-17T23:13:00.971Z,95971.53
2022-12-17T23:15:31.022Z,95966.44
2022-12-17T23:17:59.838Z,95968.28
2022-12-17T23:20:28.143Z,95962.50
2022-12-17T23:22:54.799Z,95969.25
2022-12-17T23:25:22.019Z,95969.25
2022-12-17T23:27:49.216Z,95967.53
2022-12-17T23:30:17.561Z,95967.44
2022-12-17T23:32:44.938Z,95958.94
2022-12-17T23:35:12.579Z,95963.94
2022-12-17T23:37:40.675Z,95966.31
2022-12-17T23:40:11.463Z,95966.34
2022-12-17T23:42:38.273Z,95967.94
2022-12-17T23:45:06.977Z,95954.38
2022-12-17T23:47:33.562Z,95958.59
2022-12-17T23:50:00.143Z,95951.78
2022-12-17T23:52:26.763Z,95947.78
2022-12-17T23:54:53.368Z,95947.78
2022-12-17T23:57:20.018Z,95943.59
2022-12-17T23:59:46.836Z,95951.28
